createdAt,value
2022-11-04T00:01:07.358Z,94584
2022-11-04T00:02:17.060Z,94592
2022-11-04T00:03:25.727Z,94597
2022-11-04T00:04:35.427Z,94607
2022-11-04T00:05:44.249Z,94592
2022-11-04T00:06:52.990Z,94615
2022-11-04T00:08:01.699Z,94612
2022-11-04T00:09:10.386Z,94587
2022-11-04T00:10:20.060Z,94614
2022-11-04T00:11:28.719Z,94623
2022-11-04T00:12:37.443Z,94625
2022-11-04T00:13:47.101Z,94627
2022-11-04T00:14:55.809Z,94623
2022-11-04T00:16:05.463Z,94630
2022-11-04T00:17:15.194Z,94644
2022-11-04T00:18:24.027Z,94631
2022-11-04T00:19:33.690Z,94638
2022-11-04T00:20:42.347Z,94641
2022-11-04T00:21:52.028Z,94648
2022-11-04T00:23:01.701Z,94659
2022-11-04T00:24:10.404Z,94639
2022-11-04T00:25:19.082Z,94641
2022-11-04T00:26:27.754Z,94651
2022-11-04T00:27:36.434Z,94636
2022-11-04T00:28:46.120Z,94650
2022-11-04T00:29:53.815Z,94648
2022-11-04T00:31:01.507Z,94647
2022-11-04T00:32:10.184Z,94649
2022-11-04T00:33:17.898Z,94650
2022-11-04T00:34:26.530Z,94652
2022-11-04T00:35:35.252Z,94653
2022-11-04T00:36:44.958Z,94661
2022-11-04T00:37:54.612Z,94670
2022-11-04T00:39:03.310Z,94686
2022-11-04T00:40:12.028Z,94666
2022-11-04T00:41:21.739Z,94665
2022-11-04T00:42:30.421Z,94662
2022-11-04T00:43:39.103Z,94658
2022-11-04T00:44:47.779Z,94661
2022-11-04T00:45:57.559Z,94662
2022-11-04T00:47:07.305Z,94675
2022-11-04T00:48:15.928Z,94668
2022-11-04T00:49:24.580Z,94669
2022-11-04T00:50:34.252Z,94678
2022-11-04T00:51:42.966Z,94691
2022-11-04T00:52:51.687Z,94694
2022-11-04T00:54:00.339Z,94676
2022-11-04T00:55:09.013Z,94681
2022-11-04T00:56:18.684Z,94679
2022-11-04T00:57:27.342Z,94694
2022-11-04T00:58:37.049Z,94688
2022-11-04T00:59:46.719Z,94694
2022-11-04T01:00:54.450Z,94720
2022-11-04T01:02:03.267Z,94701
2022-11-04T01:03:11.953Z,94699
2022-11-04T01:04:20.582Z,94695
2022-11-04T01:05:29.296Z,94704
2022-11-04T01:06:38.987Z,94697
2022-11-04T01:07:47.713Z,94706
2022-11-04T01:08:56.410Z,94705
2022-11-04T01:10:05.132Z,94712
2022-11-04T01:11:13.798Z,94707
2022-11-04T01:12:23.538Z,94711
2022-11-04T01:13:32.245Z,94717
2022-11-04T01:14:41.925Z,94708
2022-11-04T01:15:51.635Z,94722
2022-11-04T01:16:59.362Z,94717
2022-11-04T01:18:08.339Z,94726
2022-11-04T01:19:16.750Z,94727
2022-11-04T01:20:26.401Z,94724
2022-11-04T01:21:36.306Z,94726
2022-11-04T01:22:45.065Z,94728
2022-11-04T01:23:54.737Z,94732
2022-11-04T01:25:04.540Z,94736
2022-11-04T01:26:13.232Z,94730
2022-11-04T01:27:21.995Z,94729
2022-11-04T01:28:30.665Z,94729
2022-11-04T01:29:40.387Z,94727
2022-11-04T01:30:50.062Z,94731
2022-11-04T01:31:59.749Z,94741
2022-11-04T01:33:08.433Z,94731
2022-11-04T01:34:18.133Z,94737
2022-11-04T01:35:25.863Z,94739
2022-11-04T01:36:35.553Z,94725
2022-11-04T01:37:45.266Z,94723
2022-11-04T01:38:54.001Z,94729
2022-11-04T01:40:03.700Z,94732
2022-11-04T01:41:12.474Z,94733
2022-11-04T01:42:21.131Z,94725
2022-11-04T01:43:30.856Z,94721
2022-11-04T01:44:39.587Z,94713
2022-11-04T01:45:48.268Z,94720
2022-11-04T01:46:56.930Z,94718
2022-11-04T01:48:05.621Z,94721
2022-11-04T01:49:15.283Z,94700
2022-11-04T01:50:23.982Z,94714
2022-11-04T01:51:32.685Z,94713
2022-11-04T01:52:43.354Z,94716
2022-11-04T01:53:51.055Z,94709
2022-11-04T01:54:58.741Z,94712
2022-11-04T01:56:08.496Z,94707
2022-11-04T01:57:17.205Z,94699
2022-11-04T01:58:26.874Z,94691
2022-11-04T01:59:35.534Z,94691
2022-11-04T02:00:44.321Z,94700
2022-11-04T02:01:54.141Z,94685
2022-11-04T02:03:01.676Z,94683
2022-11-04T02:04:11.405Z,94674
2022-11-04T02:05:20.077Z,94671
2022-11-04T02:06:28.743Z,94677
2022-11-04T02:07:38.483Z,94674
2022-11-04T02:08:47.146Z,94682
2022-11-04T02:09:55.884Z,94675
2022-11-04T02:11:05.550Z,94676
2022-11-04T02:12:15.248Z,94674
2022-11-04T02:13:23.977Z,94671
2022-11-04T02:14:33.653Z,94670
2022-11-04T02:15:42.298Z,94673
2022-11-04T02:16:51.965Z,94666
2022-11-04T02:17:59.658Z,94669
2022-11-04T02:19:08.360Z,94664
2022-11-04T02:20:18.022Z,94664
2022-11-04T02:21:25.746Z,94664
2022-11-04T02:22:34.472Z,94665
2022-11-04T02:23:43.175Z,94664
2022-11-04T02:24:51.947Z,94669
2022-11-04T02:26:01.607Z,94673
2022-11-04T02:27:09.265Z,94677
2022-11-04T02:28:18.938Z,94676
2022-11-04T02:29:28.638Z,94672
2022-11-04T02:30:38.459Z,94673
2022-11-04T02:31:48.126Z,94677
2022-11-04T02:32:56.837Z,94676
2022-11-04T02:34:05.521Z,94681
2022-11-04T02:35:15.214Z,94681
2022-11-04T02:36:22.958Z,94683
2022-11-04T02:37:31.687Z,94685
2022-11-04T02:38:41.411Z,94687
2022-11-04T02:39:49.117Z,94688
2022-11-04T02:40:58.761Z,94683
2022-11-04T02:42:08.525Z,94681
2022-11-04T02:43:17.212Z,94679
2022-11-04T02:44:26.889Z,94678
2022-11-04T02:45:34.562Z,94682
2022-11-04T02:46:43.257Z,94680
2022-11-04T02:47:53.085Z,94679
2022-11-04T02:49:00.736Z,94680
2022-11-04T02:50:09.434Z,94681
2022-11-04T02:51:17.112Z,94674
2022-11-04T02:52:26.775Z,94677
2022-11-04T02:53:35.561Z,94678
2022-11-04T02:54:45.329Z,94678
2022-11-04T02:55:55.206Z,94678
2022-11-04T02:57:02.844Z,94676
2022-11-04T02:58:11.503Z,94681
2022-11-04T02:59:21.226Z,94679
2022-11-04T03:00:30.917Z,94683
2022-11-04T03:01:40.700Z,94687
2022-11-04T03:02:49.248Z,94689
2022-11-04T03:03:58.907Z,94684
2022-11-04T03:05:08.615Z,94686
2022-11-04T03:06:18.278Z,94681
2022-11-04T03:07:27.960Z,94682
2022-11-04T03:08:36.644Z,94675
2022-11-04T03:09:45.356Z,94678
2022-11-04T03:10:55.131Z,94676
2022-11-04T03:12:02.818Z,94676
2022-11-04T03:13:12.503Z,94675
2022-11-04T03:14:22.169Z,94674
2022-11-04T03:15:30.891Z,94675
2022-11-04T03:16:39.586Z,94677
2022-11-04T03:17:49.252Z,94673
2022-11-04T03:18:57.900Z,94672
2022-11-04T03:20:07.611Z,94677
2022-11-04T03:21:16.271Z,94679
2022-11-04T03:22:25.982Z,94674
2022-11-04T03:23:35.647Z,94674
2022-11-04T03:24:45.324Z,94678
2022-11-04T03:25:54.014Z,94677
2022-11-04T03:27:03.675Z,94682
2022-11-04T03:28:12.391Z,94686
2022-11-04T03:29:22.058Z,94682
2022-11-04T03:30:30.777Z,94673
2022-11-04T03:31:40.511Z,94676
2022-11-04T03:32:49.179Z,94674
2022-11-04T03:33:57.882Z,94668
2022-11-04T03:35:06.565Z,94667
2022-11-04T03:36:16.249Z,94663
2022-11-04T03:37:24.915Z,94658
2022-11-04T03:38:34.565Z,94663
2022-11-04T03:39:44.291Z,94662
2022-11-04T03:40:51.974Z,94664
2022-11-04T03:42:01.643Z,94666
2022-11-04T03:43:10.737Z,94669
2022-11-04T03:44:20.041Z,94670
2022-11-04T03:45:28.768Z,94668
2022-11-04T03:46:36.434Z,94668
2022-11-04T03:47:45.088Z,94670
2022-11-04T03:48:54.759Z,94669
2022-11-04T03:50:04.513Z,94675
2022-11-04T03:51:14.221Z,94675
2022-11-04T03:52:23.848Z,94670
2022-11-04T03:53:32.505Z,94677
2022-11-04T03:54:42.172Z,94672
2022-11-04T03:55:50.958Z,94672
2022-11-04T03:57:00.768Z,94672
2022-11-04T03:58:10.561Z,94673
2022-11-04T03:59:19.205Z,94669
2022-11-04T04:00:27.903Z,94660
2022-11-04T04:01:37.625Z,94655
2022-11-04T04:02:47.222Z,94656
2022-11-04T04:03:56.885Z,94653
2022-11-04T04:05:04.587Z,94655
2022-11-04T04:06:14.251Z,94660
2022-11-04T04:07:23.930Z,94656
2022-11-04T04:08:31.653Z,94663
2022-11-04T04:09:40.353Z,94662
2022-11-04T04:10:49.080Z,94664
2022-11-04T04:11:57.828Z,94661
2022-11-04T04:13:07.520Z,94659
2022-11-04T04:14:16.322Z,94654
2022-11-04T04:15:24.989Z,94652
2022-11-04T04:16:34.745Z,94650
2022-11-04T04:17:42.368Z,94651
2022-11-04T04:18:53.987Z,94656
2022-11-04T04:20:01.776Z,94654
2022-11-04T04:21:10.467Z,94645
2022-11-04T04:22:20.166Z,94650
2022-11-04T04:23:28.834Z,94653
2022-11-04T04:24:38.502Z,94653
2022-11-04T04:25:48.239Z,94656
2022-11-04T04:26:56.957Z,94663
2022-11-04T04:28:05.820Z,94668
2022-11-04T04:29:14.326Z,94667
2022-11-04T04:30:23.010Z,94665
2022-11-04T04:31:32.735Z,94665
2022-11-04T04:32:40.422Z,94663
2022-11-04T04:33:50.058Z,94655
2022-11-04T04:34:59.737Z,94645
2022-11-04T04:36:08.425Z,94646
2022-11-04T04:37:17.132Z,94640
2022-11-04T04:38:25.804Z,94635
2022-11-04T04:39:34.513Z,94637
2022-11-04T04:40:44.260Z,94638
2022-11-04T04:41:52.992Z,94645
2022-11-04T04:43:01.702Z,94650
2022-11-04T04:44:11.412Z,94658
2022-11-04T04:45:20.075Z,94657
2022-11-04T04:46:28.760Z,94659
2022-11-04T04:47:38.443Z,94666
2022-11-04T04:48:47.160Z,94668
2022-11-04T04:49:56.816Z,94671
2022-11-04T04:51:05.470Z,94670
2022-11-04T04:52:15.237Z,94676
2022-11-04T04:53:24.915Z,94669
2022-11-04T04:54:33.603Z,94674
2022-11-04T04:55:43.277Z,94675
2022-11-04T04:56:52.979Z,94678
2022-11-04T04:58:01.634Z,94680
2022-11-04T04:59:11.309Z,94679
2022-11-04T05:00:21.151Z,94680
2022-11-04T05:01:31.042Z,94675
2022-11-04T05:02:40.689Z,94672
2022-11-04T05:03:48.250Z,94672
2022-11-04T05:04:57.941Z,94669
2022-11-04T05:06:07.672Z,94672
2022-11-04T05:07:17.331Z,94670
2022-11-04T05:08:27.035Z,94676
2022-11-04T05:09:35.742Z,94675
2022-11-04T05:10:45.425Z,94682
2022-11-04T05:11:55.127Z,94684
2022-11-04T05:13:03.795Z,94689
2022-11-04T05:14:12.501Z,94684
2022-11-04T05:15:21.168Z,94685
2022-11-04T05:16:29.814Z,94689
2022-11-04T05:17:40.474Z,94690
2022-11-04T05:18:49.161Z,94687
2022-11-04T05:19:57.864Z,94680
2022-11-04T05:21:07.557Z,94675
2022-11-04T05:22:15.243Z,94672
2022-11-04T05:23:23.960Z,94666
2022-11-04T05:24:32.620Z,94664
2022-11-04T05:25:42.312Z,94671
2022-11-04T05:26:51.981Z,94664
2022-11-04T05:28:00.711Z,94667
2022-11-04T05:29:09.429Z,94667
2022-11-04T05:30:19.080Z,94663
2022-11-04T05:31:27.777Z,94652
2022-11-04T05:32:36.425Z,94656
2022-11-04T05:33:45.066Z,94656
2022-11-04T05:34:53.783Z,94658
2022-11-04T05:36:03.483Z,94667
2022-11-04T05:37:13.187Z,94668
2022-11-04T05:38:21.836Z,94671
2022-11-04T05:39:30.511Z,94671
2022-11-04T05:40:40.192Z,94678
2022-11-04T05:41:48.863Z,94672
2022-11-04T05:42:58.516Z,94691
2022-11-04T05:44:07.239Z,94684
2022-11-04T05:45:16.995Z,94686
2022-11-04T05:46:26.652Z,94688
2022-11-04T05:47:34.330Z,94686
2022-11-04T05:48:42.019Z,94685
2022-11-04T05:49:50.750Z,94681
2022-11-04T05:51:00.451Z,94680
2022-11-04T05:52:10.151Z,94682
2022-11-04T05:53:18.904Z,94681
2022-11-04T05:54:28.490Z,94682
2022-11-04T05:55:38.221Z,94682
2022-11-04T05:56:46.875Z,94684
2022-11-04T05:57:55.567Z,94682
2022-11-04T05:59:04.239Z,94680
2022-11-04T06:00:11.890Z,94685
2022-11-04T06:01:21.629Z,94680
2022-11-04T06:02:29.317Z,94684
2022-11-04T06:03:37.973Z,94686
2022-11-04T06:04:47.666Z,94685
2022-11-04T06:05:56.351Z,94690
2022-11-04T06:07:05.006Z,94694
2022-11-04T06:08:13.686Z,94701
2022-11-04T06:09:23.419Z,94693
2022-11-04T06:10:33.063Z,94687
2022-11-04T06:11:41.728Z,94684
2022-11-04T06:12:50.410Z,94685
2022-11-04T06:14:00.084Z,94701
2022-11-04T06:15:08.764Z,94712
2022-11-04T06:16:18.465Z,94709
2022-11-04T06:17:27.117Z,94709
2022-11-04T06:18:35.770Z,94705
2022-11-04T06:19:45.446Z,94707
2022-11-04T06:20:54.159Z,94705
2022-11-04T06:22:02.837Z,94713
2022-11-04T06:23:12.494Z,94717
2022-11-04T06:24:21.153Z,94712
2022-11-04T06:25:31.531Z,94709
2022-11-04T06:26:40.531Z,94702
2022-11-04T06:27:50.221Z,94706
2022-11-04T06:28:59.886Z,94699
2022-11-04T06:30:07.539Z,94705
2022-11-04T06:31:16.229Z,94700
2022-11-04T06:32:26.020Z,94702
2022-11-04T06:33:36.909Z,94700
2022-11-04T06:34:43.333Z,94692
2022-11-04T06:35:52.026Z,94699
2022-11-04T06:37:00.677Z,94697
2022-11-04T06:38:10.749Z,94705
2022-11-04T06:39:18.079Z,94706
2022-11-04T06:40:26.724Z,94709
2022-11-04T06:41:36.411Z,94709
2022-11-04T06:42:46.073Z,94710
2022-11-04T06:43:54.785Z,94716
2022-11-04T06:45:03.484Z,94715
2022-11-04T06:46:13.149Z,94716
2022-11-04T06:47:24.863Z,94723
2022-11-04T06:48:31.459Z,94718
2022-11-04T06:49:41.205Z,94720
2022-11-04T06:50:50.880Z,94718
2022-11-04T06:51:58.538Z,94719
2022-11-04T06:53:08.504Z,94723
2022-11-04T06:54:16.893Z,94727
2022-11-04T06:55:26.584Z,94721
2022-11-04T06:56:36.247Z,94717
2022-11-04T06:57:43.929Z,94709
2022-11-04T06:58:53.595Z,94697
2022-11-04T07:00:03.269Z,94690
2022-11-04T07:01:16.015Z,94691
2022-11-04T07:02:21.732Z,94687
2022-11-04T07:03:31.244Z,94690
2022-11-04T07:04:39.985Z,94694
2022-11-04T07:05:49.639Z,94696
2022-11-04T07:06:58.430Z,94695
2022-11-04T07:08:07.363Z,94702
2022-11-04T07:09:17.242Z,94702
2022-11-04T07:10:25.925Z,94704
2022-11-04T07:11:34.563Z,94707
2022-11-04T07:12:43.271Z,94713
2022-11-04T07:13:51.956Z,94722
2022-11-04T07:15:01.599Z,94721
2022-11-04T07:16:11.285Z,94722
2022-11-04T07:17:19.946Z,94724
2022-11-04T07:18:29.625Z,94722
2022-11-04T07:19:38.298Z,94727
2022-11-04T07:20:46.950Z,94732
2022-11-04T07:21:55.604Z,94737
2022-11-04T07:23:04.290Z,94742
2022-11-04T07:24:14.115Z,94742
2022-11-04T07:25:21.774Z,94742
2022-11-04T07:26:31.433Z,94747
2022-11-04T07:27:40.215Z,94755
2022-11-04T07:28:49.881Z,94750
2022-11-04T07:29:59.618Z,94754
2022-11-04T07:31:09.402Z,94757
2022-11-04T07:32:19.507Z,94756
2022-11-04T07:33:28.204Z,94753
2022-11-04T07:34:36.895Z,94758
2022-11-04T07:35:45.681Z,94765
2022-11-04T07:36:56.372Z,94776
2022-11-04T07:38:06.196Z,94779
2022-11-04T07:39:14.741Z,94781
2022-11-04T07:40:24.439Z,94779
2022-11-04T07:41:33.151Z,94774
2022-11-04T07:42:42.005Z,94775
2022-11-04T07:43:51.670Z,94776
2022-11-04T07:44:59.342Z,94773
2022-11-04T07:46:08.907Z,94767
2022-11-04T07:47:18.580Z,94772
2022-11-04T07:48:28.273Z,94773
2022-11-04T07:49:38.014Z,94779
2022-11-04T07:50:47.660Z,94781
2022-11-04T07:51:57.336Z,94783
2022-11-04T07:53:07.502Z,94791
2022-11-04T07:54:13.722Z,94796
2022-11-04T07:55:22.395Z,94800
2022-11-04T07:56:31.060Z,94802
2022-11-04T07:57:39.777Z,94805
2022-11-04T07:58:49.495Z,94802
2022-11-04T07:59:57.340Z,94797
2022-11-04T08:01:05.984Z,94796
2022-11-04T08:02:17.615Z,94793
2022-11-04T08:03:26.330Z,94789
2022-11-04T08:04:35.009Z,94785
2022-11-04T08:05:44.673Z,94782
2022-11-04T08:06:53.375Z,94773
2022-11-04T08:08:03.066Z,94761
2022-11-04T08:09:10.776Z,94757
2022-11-04T08:10:19.402Z,94758
2022-11-04T08:11:29.066Z,94755
2022-11-04T08:12:37.717Z,94760
2022-11-04T08:13:47.381Z,94762
2022-11-04T08:14:57.083Z,94759
2022-11-04T08:16:05.790Z,94759
2022-11-04T08:17:15.556Z,94750
2022-11-04T08:18:25.318Z,94748
2022-11-04T08:19:34.953Z,94750
2022-11-04T08:20:44.604Z,94750
2022-11-04T08:21:52.265Z,94753
2022-11-04T08:23:01.919Z,94745
2022-11-04T08:24:10.607Z,94736
2022-11-04T08:25:20.273Z,94730
2022-11-04T08:26:28.957Z,94728
2022-11-04T08:27:36.629Z,94725
2022-11-04T08:28:45.268Z,94728
2022-11-04T08:29:54.949Z,94730
2022-11-04T08:31:02.606Z,94728
2022-11-04T08:32:11.310Z,94726
2022-11-04T08:33:21.018Z,94730
2022-11-04T08:34:29.752Z,94728
2022-11-04T08:35:41.111Z,94727
2022-11-04T08:36:48.154Z,94729
2022-11-04T08:37:56.817Z,94730
2022-11-04T08:39:10.531Z,94727
2022-11-04T08:40:16.254Z,94729
2022-11-04T08:41:24.906Z,94735
2022-11-04T08:42:33.597Z,94731
2022-11-04T08:43:42.236Z,94734
2022-11-04T08:44:51.924Z,94730
2022-11-04T08:45:59.612Z,94726
2022-11-04T08:47:09.259Z,94714
2022-11-04T08:48:18.916Z,94713
2022-11-04T08:49:26.572Z,94706
2022-11-04T08:50:35.366Z,94698
2022-11-04T08:51:44.995Z,94691
2022-11-04T08:52:54.670Z,94694
2022-11-04T08:54:04.326Z,94697
2022-11-04T08:55:13.014Z,94695
2022-11-04T08:56:22.663Z,94696
2022-11-04T08:57:32.391Z,94700
2022-11-04T08:58:41.075Z,94694
2022-11-04T08:59:50.728Z,94697
2022-11-04T09:00:59.428Z,94693
2022-11-04T09:02:08.213Z,94698
2022-11-04T09:03:17.756Z,94698
2022-11-04T09:04:26.416Z,94703
2022-11-04T09:05:35.068Z,94701
2022-11-04T09:06:44.785Z,94693
2022-11-04T09:07:53.528Z,94683
2022-11-04T09:09:02.183Z,94684
2022-11-04T09:10:11.867Z,94672
2022-11-04T09:11:20.547Z,94669
2022-11-04T09:12:30.209Z,94664
2022-11-04T09:13:39.742Z,94670
2022-11-04T09:14:47.562Z,94671
2022-11-04T09:15:57.306Z,94672
2022-11-04T09:17:06.003Z,94669
2022-11-04T09:18:14.685Z,94672
2022-11-04T09:19:23.406Z,94676
2022-11-04T09:20:32.085Z,94683
2022-11-04T09:21:41.774Z,94687
2022-11-04T09:22:49.593Z,94685
2022-11-04T09:23:59.154Z,94685
2022-11-04T09:25:08.834Z,94682
2022-11-04T09:26:18.493Z,94678
2022-11-04T09:27:27.203Z,94670
2022-11-04T09:28:36.877Z,94669
2022-11-04T09:29:44.518Z,94672
2022-11-04T09:30:54.189Z,94673
2022-11-04T09:32:04.848Z,94673
2022-11-04T09:33:13.503Z,94679
2022-11-04T09:34:21.158Z,94681
2022-11-04T09:35:29.810Z,94681
2022-11-04T09:36:38.485Z,94680
2022-11-04T09:37:47.158Z,94685
2022-11-04T09:38:56.982Z,94685
2022-11-04T09:40:06.487Z,94689
2022-11-04T09:41:16.194Z,94692
2022-11-04T09:42:23.881Z,94694
2022-11-04T09:43:32.563Z,94693
2022-11-04T09:44:59.998Z,94696
2022-11-04T09:45:51.843Z,94696
2022-11-04T09:47:01.491Z,94695
2022-11-04T09:48:10.169Z,94695
2022-11-04T09:49:18.839Z,94686
2022-11-04T09:50:28.489Z,94688
2022-11-04T09:51:53.597Z,94689
2022-11-04T09:52:48.761Z,94688
2022-11-04T09:53:58.648Z,94691
2022-11-04T09:55:07.146Z,94693
2022-11-04T09:56:16.808Z,94690
2022-11-04T09:57:24.609Z,94689
2022-11-04T09:58:33.195Z,94688
2022-11-04T09:59:42.913Z,94686
2022-11-04T10:00:52.692Z,94695
2022-11-04T10:02:02.281Z,94691
2022-11-04T10:03:11.263Z,94689
2022-11-04T10:04:20.640Z,94696
2022-11-04T10:05:30.486Z,94690
2022-11-04T10:06:39.140Z,94688
2022-11-04T10:07:47.851Z,94685
2022-11-04T10:08:57.529Z,94687
2022-11-04T10:10:06.312Z,94685
2022-11-04T10:11:14.901Z,94683
2022-11-04T10:12:24.641Z,94685
2022-11-04T10:13:34.296Z,94682
2022-11-04T10:14:43.960Z,94690
2022-11-04T10:15:51.618Z,94695
2022-11-04T10:17:00.330Z,94699
2022-11-04T10:18:10.034Z,94695
2022-11-04T10:19:18.732Z,94695
2022-11-04T10:20:27.473Z,94697
2022-11-04T10:21:36.141Z,94694
2022-11-04T10:22:44.816Z,94693
2022-11-04T10:23:54.508Z,94693
2022-11-04T10:25:03.194Z,94683
2022-11-04T10:26:11.992Z,94680
2022-11-04T10:27:21.546Z,94681
2022-11-04T10:28:30.225Z,94675
2022-11-04T10:29:39.896Z,94674
2022-11-04T10:30:49.634Z,94662
2022-11-04T10:31:59.274Z,94652
2022-11-04T10:33:09.170Z,94653
2022-11-04T10:34:16.742Z,94652
2022-11-04T10:35:25.363Z,94646
2022-11-04T10:36:35.085Z,94651
2022-11-04T10:37:43.813Z,94648
2022-11-04T10:38:53.501Z,94646
2022-11-04T10:40:03.207Z,94638
2022-11-04T10:41:12.879Z,94632
2022-11-04T10:42:22.672Z,94624
2022-11-04T10:43:31.242Z,94621
2022-11-04T10:44:40.932Z,94620
2022-11-04T10:45:50.659Z,94625
2022-11-04T10:46:58.338Z,94624
2022-11-04T10:48:07.026Z,94626
2022-11-04T10:49:16.688Z,94630
2022-11-04T10:50:30.122Z,94630
2022-11-04T10:51:35.053Z,94629
2022-11-04T10:52:43.724Z,94632
2022-11-04T10:53:53.393Z,94635
2022-11-04T10:55:03.049Z,94626
2022-11-04T10:56:11.792Z,94634
2022-11-04T10:57:20.389Z,94625
2022-11-04T10:58:29.077Z,94627
2022-11-04T10:59:38.706Z,94630
2022-11-04T11:00:48.470Z,94623
2022-11-04T11:01:58.186Z,94627
2022-11-04T11:03:07.075Z,94627
2022-11-04T11:04:16.417Z,94628
2022-11-04T11:05:26.099Z,94629
2022-11-04T11:06:34.765Z,94631
2022-11-04T11:07:44.440Z,94628
2022-11-04T11:08:53.147Z,94625
2022-11-04T11:10:02.805Z,94627
2022-11-04T11:11:10.476Z,94633
2022-11-04T11:12:49.207Z,94634
2022-11-04T11:13:30.844Z,94636
2022-11-04T11:14:38.516Z,94635
2022-11-04T11:15:48.177Z,94634
2022-11-04T11:16:56.846Z,94645
2022-11-04T11:18:05.520Z,94652
2022-11-04T11:19:15.193Z,94650
2022-11-04T11:20:22.970Z,94651
2022-11-04T11:21:32.650Z,94653
2022-11-04T11:22:42.342Z,94654
2022-11-04T11:23:51.103Z,94658
2022-11-04T11:24:59.744Z,94659
2022-11-04T11:26:09.481Z,94660
2022-11-04T11:27:19.152Z,94666
2022-11-04T11:28:28.798Z,94666
2022-11-04T11:29:38.510Z,94666
2022-11-04T11:30:46.166Z,94666
2022-11-04T11:31:55.988Z,94666
2022-11-04T11:33:04.677Z,94668
2022-11-04T11:34:14.370Z,94674
2022-11-04T11:35:24.123Z,94679
2022-11-04T11:36:33.821Z,94678
2022-11-04T11:37:42.504Z,94678
2022-11-04T11:38:52.168Z,94691
2022-11-04T11:40:00.902Z,94688
2022-11-04T11:41:24.215Z,94681
2022-11-04T11:42:22.228Z,94677
2022-11-04T11:43:31.965Z,94680
2022-11-04T11:44:41.642Z,94680
2022-11-04T11:45:51.298Z,94685
2022-11-04T11:47:01.022Z,94685
2022-11-04T11:48:10.843Z,94687
2022-11-04T11:49:18.645Z,94682
2022-11-04T11:50:27.325Z,94681
2022-11-04T11:51:36.034Z,94680
2022-11-04T11:52:45.683Z,94678
2022-11-04T11:53:55.348Z,94677
2022-11-04T11:55:04.060Z,94674
2022-11-04T11:56:12.747Z,94669
2022-11-04T11:57:25.278Z,94669
2022-11-04T12:00:56.855Z,94675
2022-11-04T12:02:03.204Z,94676
2022-11-04T12:03:13.380Z,94675
2022-11-04T12:09:22.906Z,94678
2022-11-04T12:10:23.900Z,94674
2022-11-04T12:11:26.499Z,94677
2022-11-04T12:12:36.245Z,94683
2022-11-04T12:13:44.912Z,94680
2022-11-04T12:14:53.553Z,94685
2022-11-04T12:16:03.260Z,94678
2022-11-04T12:17:10.876Z,94682
2022-11-04T12:18:20.584Z,94682
2022-11-04T12:19:30.283Z,94678
2022-11-04T12:20:39.961Z,94678
2022-11-04T12:21:48.647Z,94673
2022-11-04T12:22:57.297Z,94673
2022-11-04T12:24:07.063Z,94674
2022-11-04T12:25:16.799Z,94676
2022-11-04T12:26:24.498Z,94665
2022-11-04T12:27:34.179Z,94665
2022-11-04T12:28:42.858Z,94662
2022-11-04T12:29:52.559Z,94655
2022-11-04T12:31:02.227Z,94647
2022-11-04T12:32:09.917Z,94642
2022-11-04T12:33:19.564Z,94639
2022-11-04T12:34:29.229Z,94640
2022-11-04T12:35:37.954Z,94642
2022-11-04T12:36:46.621Z,94639
2022-11-04T12:37:56.327Z,94639
2022-11-04T12:39:04.997Z,94646
2022-11-04T12:40:14.679Z,94648
2022-11-04T12:41:42.148Z,94658
2022-11-04T12:42:34.021Z,94663
2022-11-04T12:43:43.686Z,94670
2022-11-04T12:44:51.356Z,94673
2022-11-04T12:46:00.050Z,94679
2022-11-04T12:47:09.770Z,94684
2022-11-04T12:48:17.474Z,94688
2022-11-04T12:49:27.186Z,94691
2022-11-04T12:50:35.909Z,94691
2022-11-04T12:51:44.560Z,94703
2022-11-04T12:52:54.357Z,94698
2022-11-04T12:54:03.029Z,94700
2022-11-04T12:55:11.704Z,94699
2022-11-04T12:56:20.424Z,94696
2022-11-04T12:57:30.152Z,94702
2022-11-04T12:58:39.891Z,94702
2022-11-04T12:59:48.634Z,94706
2022-11-04T13:00:59.820Z,94703
2022-11-04T13:02:08.203Z,94710
2022-11-04T13:03:15.724Z,94710
2022-11-04T13:04:24.452Z,94709
2022-11-04T13:05:34.117Z,94709
2022-11-04T13:06:42.773Z,94707
2022-11-04T13:07:52.458Z,94708
2022-11-04T13:08:59.155Z,94710
2022-11-04T13:10:07.889Z,94704
2022-11-04T13:11:18.537Z,94709
2022-11-04T13:12:27.233Z,94717
2022-11-04T13:13:35.884Z,94716
2022-11-04T13:14:45.623Z,94719
2022-11-04T13:15:55.356Z,94725
2022-11-04T13:17:05.056Z,94720
2022-11-04T13:18:13.728Z,94721
2022-11-04T13:19:22.373Z,94720
2022-11-04T13:20:32.237Z,94724
2022-11-04T13:21:39.884Z,94727
2022-11-04T13:22:49.551Z,94735
2022-11-04T13:24:00.199Z,94731
2022-11-04T13:25:08.880Z,94742
2022-11-04T13:26:17.570Z,94741
2022-11-04T13:27:27.284Z,94740
2022-11-04T13:28:34.983Z,94733
2022-11-04T13:29:43.653Z,94731
2022-11-04T13:30:53.335Z,94729
2022-11-04T13:32:03.026Z,94729
2022-11-04T13:33:13.761Z,94735
2022-11-04T13:34:23.405Z,94731
2022-11-04T13:35:32.127Z,94731
2022-11-04T13:36:41.860Z,94739
2022-11-04T13:37:49.495Z,94743
2022-11-04T13:38:59.224Z,94739
2022-11-04T13:40:08.932Z,94743
2022-11-04T13:41:21.466Z,94744
2022-11-04T13:42:27.262Z,94747
2022-11-04T13:43:35.885Z,94744
2022-11-04T13:44:45.593Z,94753
2022-11-04T13:45:55.277Z,94746
2022-11-04T13:47:04.060Z,94747
2022-11-04T13:48:12.857Z,94744
2022-11-04T13:49:21.543Z,94746
2022-11-04T13:50:31.319Z,94743
2022-11-04T13:51:40.948Z,94744
2022-11-04T13:52:52.484Z,94741
2022-11-04T13:53:57.239Z,94741
2022-11-04T13:55:06.943Z,94744
2022-11-04T13:56:31.991Z,94739
2022-11-04T13:57:24.258Z,94739
2022-11-04T13:58:33.945Z,94739
2022-11-04T13:59:43.743Z,94736
2022-11-04T14:00:53.348Z,94734
2022-11-04T14:02:02.141Z,94731
2022-11-04T14:03:11.122Z,94737
2022-11-04T14:04:20.478Z,94738
2022-11-04T14:05:29.166Z,94737
2022-11-04T14:06:38.911Z,94740
2022-11-04T14:07:47.618Z,94740
2022-11-04T14:08:57.412Z,94738
2022-11-04T14:10:07.033Z,94740
2022-11-04T14:11:15.644Z,94740
2022-11-04T14:12:25.324Z,94740
2022-11-04T14:13:35.169Z,94741
2022-11-04T14:14:43.736Z,94744
2022-11-04T14:15:53.403Z,94741
2022-11-04T14:17:02.115Z,94742
2022-11-04T14:18:13.063Z,94745
2022-11-04T14:19:21.490Z,94745
2022-11-04T14:20:31.180Z,94744
2022-11-04T14:21:39.888Z,94741
2022-11-04T14:22:49.582Z,94749
2022-11-04T14:23:58.309Z,94747
2022-11-04T14:25:08.123Z,94751
2022-11-04T14:26:17.838Z,94748
2022-11-04T14:27:26.494Z,94751
2022-11-04T14:28:36.190Z,94747
2022-11-04T14:29:43.908Z,94749
2022-11-04T14:30:53.720Z,94750
2022-11-04T14:32:03.462Z,94745
2022-11-04T14:33:12.350Z,94749
2022-11-04T14:34:20.863Z,94749
2022-11-04T14:35:29.533Z,94748
2022-11-04T14:36:39.207Z,94756
2022-11-04T14:37:51.942Z,94754
2022-11-04T14:38:59.601Z,94752
2022-11-04T14:40:08.247Z,94756
2022-11-04T14:41:17.938Z,94753
2022-11-04T14:42:25.632Z,94747
2022-11-04T14:43:35.328Z,94746
2022-11-04T14:44:48.137Z,94740
2022-11-04T14:45:53.677Z,94741
2022-11-04T14:47:03.386Z,94739
2022-11-04T14:48:15.761Z,94736
2022-11-04T14:49:21.752Z,94735
2022-11-04T14:50:31.423Z,94735
2022-11-04T14:51:39.077Z,94731
2022-11-04T14:52:47.802Z,94730
2022-11-04T14:53:57.518Z,94730
2022-11-04T14:55:07.219Z,94725
2022-11-04T14:56:23.124Z,94727
2022-11-04T14:57:27.561Z,94730